createdAt,value
2019-05-15T00:01:54.058Z,2.62
2019-05-15T00:03:04.253Z,2.51
2019-05-15T00:13:48.385Z,2.46
2019-05-15T00:14:43.057Z,2.43
2019-05-15T00:22:39.790Z,2.30
2019-05-15T00:22:53.627Z,2.32
2019-05-15T00:28:19.484Z,2.22
2019-05-15T00:29:21.359Z,2.21
2019-05-15T00:30:35.656Z,2.22
2019-05-15T00:31:14.687Z,2.25
2019-05-15T00:32:14.530Z,2.23
2019-05-15T00:33:14.406Z,2.21
2019-05-15T00:34:14.317Z,2.19
2019-05-15T00:35:14.478Z,2.19
2019-05-15T00:36:14.364Z,2.26
2019-05-15T00:37:14.727Z,2.19
2019-05-15T00:38:14.229Z,2.22
2019-05-15T00:39:16.091Z,2.14
2019-05-15T00:40:14.293Z,2.15
2019-05-15T00:41:14.171Z,2.14
2019-05-15T00:42:14.393Z,2.12
2019-05-15T00:43:14.164Z,2.16
2019-05-15T00:44:14.518Z,2.01
2019-05-15T00:45:14.120Z,2.08
2019-05-15T00:46:14.321Z,2.01
2019-05-15T00:47:14.142Z,1.97
2019-05-15T00:48:14.186Z,1.95
2019-05-15T00:49:14.446Z,1.97
2019-05-15T00:50:15.118Z,1.98
2019-05-15T00:51:14.852Z,1.97
2019-05-15T00:52:15.090Z,1.86
2019-05-15T00:53:14.948Z,1.89
2019-05-15T00:54:13.915Z,1.86
2019-05-15T00:55:14.860Z,1.84
2019-05-15T00:56:14.073Z,1.85
2019-05-15T00:57:13.906Z,1.84
2019-05-15T00:58:14.091Z,1.85
2019-05-15T00:59:24.055Z,1.75
2019-05-15T01:14:40.084Z,1.79
2019-05-15T01:15:42.621Z,1.71
2019-05-15T01:16:39.701Z,1.67
2019-05-15T01:17:40.609Z,1.67
2019-05-15T01:18:39.686Z,1.74
2019-05-15T01:19:39.680Z,1.61
2019-05-15T01:20:39.647Z,1.68
2019-05-15T01:21:39.637Z,1.64
2019-05-15T01:22:39.727Z,1.56
2019-05-15T01:23:39.580Z,1.64
2019-05-15T01:24:39.868Z,1.58
2019-05-15T01:25:39.837Z,1.48
2019-05-15T01:26:39.817Z,1.52
2019-05-15T01:27:39.765Z,1.50
2019-05-15T01:28:39.854Z,1.42
2019-05-15T01:29:44.685Z,1.42
2019-05-15T01:30:40.471Z,1.34
2019-05-15T01:32:01.058Z,1.46
2019-05-15T01:32:39.926Z,1.38
2019-05-15T01:33:40.389Z,1.34
2019-05-15T01:34:39.322Z,1.30
2019-05-15T01:35:39.369Z,1.27
2019-05-15T01:36:39.343Z,1.28
2019-05-15T01:49:55.257Z,1.24
2019-05-15T02:10:53.361Z,1.10
2019-05-15T02:20:58.686Z,1.03
2019-05-15T02:35:10.555Z,0.91
2019-05-15T02:43:54.919Z,0.82
2019-05-15T02:50:05.333Z,0.74
2019-05-15T02:55:04.325Z,0.63
2019-05-15T02:59:44.716Z,0.64
2019-05-15T03:00:46.900Z,0.68
2019-05-15T03:01:40.454Z,0.58
2019-05-15T03:02:40.734Z,0.55
2019-05-15T03:03:49.868Z,0.55
2019-05-15T03:04:39.996Z,0.55
2019-05-15T03:05:40.754Z,0.55
2019-05-15T03:06:38.937Z,0.51
2019-05-15T03:07:40.448Z,0.55
2019-05-15T03:08:39.816Z,0.52
2019-05-15T03:09:39.877Z,0.47
2019-05-15T03:10:39.976Z,0.48
2019-05-15T03:11:40.449Z,0.47
2019-05-15T03:12:40.484Z,0.47
2019-05-15T03:13:39.124Z,0.47
2019-05-15T03:14:39.992Z,0.45
2019-05-15T03:15:40.141Z,0.42
2019-05-15T03:16:39.420Z,0.51
2019-05-15T03:17:40.310Z,0.42
2019-05-15T03:18:39.711Z,0.42
2019-05-15T03:19:39.262Z,0.48
2019-05-15T03:20:38.849Z,0.40
2019-05-15T03:21:38.831Z,0.40
2019-05-15T03:22:39.657Z,0.39
2019-05-15T03:23:40.062Z,0.42
2019-05-15T03:24:39.713Z,0.37
2019-05-15T03:25:39.862Z,0.34
2019-05-15T03:26:39.419Z,0.31
2019-05-15T03:27:39.495Z,0.34
2019-05-15T03:28:39.166Z,0.31
2019-05-15T03:29:40.020Z,0.31
2019-05-15T03:31:07.019Z,0.31
2019-05-15T03:31:52.888Z,0.24
2019-05-15T03:32:46.533Z,0.27
2019-05-15T03:33:43.943Z,0.12
2019-05-15T03:34:44.708Z,0.23
2019-05-15T03:35:41.885Z,0.20
2019-05-15T03:36:36.627Z,0.20
2019-05-15T03:37:39.521Z,0.23
2019-05-15T03:38:39.068Z,0.16
2019-05-15T03:39:39.044Z,0.11
2019-05-15T03:40:39.501Z,0.23
2019-05-15T03:41:39.186Z,0.19
2019-05-15T03:42:39.399Z,0.18
2019-05-15T03:43:39.381Z,0.18
2019-05-15T03:44:39.055Z,0.20
2019-05-15T03:45:39.999Z,0.12
2019-05-15T03:46:39.559Z,0.20
2019-05-15T03:47:39.698Z,0.11
2019-05-15T03:48:39.759Z,0.20
2019-05-15T03:49:39.454Z,0.20
2019-05-15T03:50:39.703Z,0.13
2019-05-15T03:51:39.923Z,0.16
2019-05-15T03:52:39.276Z,0.13
2019-05-15T03:53:39.538Z,0.16
2019-05-15T03:54:39.103Z,0.16
2019-05-15T03:55:36.261Z,0.18
2019-05-15T03:56:39.256Z,0.15
2019-05-15T03:57:39.592Z,0.13
2019-05-15T03:58:39.722Z,0.12
2019-05-15T03:59:39.620Z,0.09
2019-05-15T04:00:39.257Z,0.16
2019-05-15T04:01:39.760Z,0.12
2019-05-15T04:02:38.994Z,0.12
2019-05-15T04:03:38.821Z,0.15
2019-05-15T04:04:38.809Z,0.18
2019-05-15T04:05:38.740Z,0.13
2019-05-15T04:06:38.849Z,0.23
2019-05-15T04:07:35.970Z,0.16
2019-05-15T04:08:38.885Z,0.16
2019-05-15T04:09:38.548Z,0.18
2019-05-15T04:10:35.933Z,0.18
2019-05-15T04:11:38.572Z,0.18
2019-05-15T04:12:35.870Z,0.16
2019-05-15T04:13:39.177Z,0.15
2019-05-15T04:14:39.251Z,0.11
2019-05-15T04:15:39.028Z,0.18
2019-05-15T04:16:38.758Z,0.12
2019-05-15T04:17:35.763Z,0.11
2019-05-15T04:18:35.768Z,0.23
2019-05-15T04:19:38.861Z,0.26
2019-05-15T04:20:35.702Z,0.29
2019-05-15T04:21:41.194Z,0.24
2019-05-15T04:22:35.661Z,0.20
2019-05-15T04:23:35.644Z,0.29
2019-05-15T04:24:35.620Z,0.18
2019-05-15T04:25:38.853Z,0.30
2019-05-15T04:26:35.580Z,0.26
2019-05-15T04:27:38.777Z,0.27
2019-05-15T04:28:35.556Z,0.34
2019-05-15T04:29:35.525Z,0.39
2019-05-15T04:30:38.925Z,0.27
2019-05-15T04:31:50.251Z,0.37
2019-05-15T04:32:35.481Z,0.37
2019-05-15T04:33:35.440Z,0.45
2019-05-15T04:34:35.418Z,0.45
2019-05-15T04:35:35.397Z,0.44
2019-05-15T04:36:35.385Z,0.45
2019-05-15T04:37:35.378Z,0.56
2019-05-15T04:38:39.024Z,0.56
2019-05-15T04:39:35.341Z,0.61
2019-05-15T04:40:35.305Z,0.64
2019-05-15T04:41:35.298Z,0.58
2019-05-15T04:42:35.259Z,0.66
2019-05-15T04:43:41.284Z,0.67
2019-05-15T04:44:35.215Z,0.74
2019-05-15T04:45:35.635Z,0.77
2019-05-15T04:46:35.192Z,0.85
2019-05-15T04:47:35.187Z,0.84
2019-05-15T04:48:35.134Z,0.99
2019-05-15T04:49:35.118Z,0.82
2019-05-15T04:50:35.098Z,1.04
2019-05-15T04:51:35.078Z,0.96
2019-05-15T04:52:35.064Z,1.04
2019-05-15T04:53:35.044Z,1.10
2019-05-15T04:54:35.022Z,1.28
2019-05-15T04:55:35.012Z,1.36
2019-05-15T04:56:34.982Z,1.42
2019-05-15T04:57:34.959Z,1.57
2019-05-15T04:58:34.947Z,1.64
2019-05-15T04:59:34.937Z,1.60
2019-05-15T05:00:34.909Z,1.67
2019-05-15T05:01:34.884Z,1.67
2019-05-15T05:02:34.875Z,1.76
2019-05-15T05:03:35.046Z,1.86
2019-05-15T05:04:34.831Z,1.95
2019-05-15T05:05:34.802Z,1.89
2019-05-15T05:06:34.783Z,2.00
2019-05-15T05:07:34.769Z,2.04
2019-05-15T05:08:34.754Z,2.16
2019-05-15T05:09:34.733Z,2.23
2019-05-15T05:10:34.726Z,2.30
2019-05-15T05:11:34.700Z,2.39
2019-05-15T05:12:34.685Z,2.43
2019-05-15T05:13:34.655Z,2.54
2019-05-15T05:14:34.634Z,2.40
2019-05-15T05:15:34.615Z,2.50
2019-05-15T05:16:34.610Z,2.58
2019-05-15T05:17:34.576Z,2.65
2019-05-15T05:18:34.562Z,2.75
2019-05-15T05:19:34.536Z,2.75
2019-05-15T05:20:34.537Z,2.88
2019-05-15T05:21:34.521Z,2.85
2019-05-15T05:22:34.479Z,2.90
2019-05-15T05:23:34.471Z,3.00
2019-05-15T05:24:34.445Z,3.09
2019-05-15T05:25:34.444Z,3.05
2019-05-15T05:26:34.420Z,3.12
2019-05-15T05:27:34.384Z,3.31
2019-05-15T05:28:34.369Z,3.24
2019-05-15T05:29:34.351Z,3.45
2019-05-15T05:30:34.336Z,3.43
2019-05-15T05:31:34.311Z,3.53
2019-05-15T05:32:35.241Z,3.64
2019-05-15T05:33:34.281Z,3.70
2019-05-15T05:34:34.295Z,3.73
2019-05-15T05:35:34.264Z,3.74
2019-05-15T05:36:34.224Z,3.78
2019-05-15T05:37:34.205Z,3.85
2019-05-15T05:38:34.186Z,3.89
2019-05-15T05:39:34.175Z,4.06
2019-05-15T05:40:34.153Z,4.13
2019-05-15T05:41:34.137Z,4.14
2019-05-15T05:42:34.115Z,4.13
2019-05-15T05:43:34.092Z,4.20
2019-05-15T05:44:34.076Z,4.31
2019-05-15T05:45:34.076Z,4.34
2019-05-15T05:46:34.052Z,4.43
2019-05-15T05:47:34.110Z,4.38
2019-05-15T05:48:34.011Z,4.53
2019-05-15T05:49:34.005Z,4.58
2019-05-15T05:50:33.978Z,4.61
2019-05-15T05:51:33.962Z,4.70
2019-05-15T05:52:33.935Z,4.76
2019-05-15T05:53:33.914Z,4.71
2019-05-15T05:54:33.921Z,4.87
2019-05-15T05:55:33.892Z,4.89
2019-05-15T05:56:33.866Z,5.04
2019-05-15T05:57:33.840Z,5.12
2019-05-15T05:58:33.829Z,5.02
2019-05-15T05:59:33.830Z,5.15
2019-05-15T06:00:33.805Z,5.16
2019-05-15T06:01:37.071Z,5.23
2019-05-15T06:02:44.665Z,5.31
2019-05-15T06:03:33.764Z,5.43
2019-05-15T06:04:33.727Z,5.41
2019-05-15T06:05:33.708Z,5.49
2019-05-15T06:06:33.683Z,5.54
2019-05-15T06:07:35.406Z,5.62
2019-05-15T06:08:33.652Z,5.61
2019-05-15T06:09:33.632Z,5.70
2019-05-15T06:10:33.638Z,5.77
2019-05-15T06:11:33.603Z,5.87
2019-05-15T06:12:33.587Z,5.92
2019-05-15T06:13:33.575Z,5.97
2019-05-15T06:14:33.551Z,6.06
2019-05-15T06:15:33.537Z,6.15
2019-05-15T06:16:33.534Z,6.20
2019-05-15T06:17:33.494Z,6.32
2019-05-15T06:18:33.481Z,6.43
2019-05-15T06:19:33.469Z,6.52
2019-05-15T06:20:33.454Z,6.62
2019-05-15T06:21:33.436Z,6.67
2019-05-15T06:22:33.416Z,6.68
2019-05-15T06:23:35.463Z,6.72
2019-05-15T06:24:33.384Z,6.87
2019-05-15T06:25:33.375Z,6.90
2019-05-15T06:26:33.344Z,6.93
2019-05-15T06:27:33.336Z,7.05
2019-05-15T06:28:33.308Z,7.04
2019-05-15T06:29:33.304Z,7.07
2019-05-15T06:30:33.290Z,7.07
2019-05-15T06:31:33.265Z,7.23
2019-05-15T06:32:33.249Z,7.26
2019-05-15T06:33:33.260Z,7.33
2019-05-15T06:34:33.222Z,7.46
2019-05-15T06:35:33.222Z,7.48
2019-05-15T06:36:33.184Z,7.47
2019-05-15T06:37:33.167Z,7.59
2019-05-15T06:38:33.156Z,7.70
2019-05-15T06:39:33.139Z,7.67
2019-05-15T06:40:33.124Z,7.80
2019-05-15T06:41:33.995Z,7.87
2019-05-15T06:42:33.378Z,7.96
2019-05-15T06:43:33.114Z,7.93
2019-05-15T06:44:33.052Z,8.03
2019-05-15T06:45:33.039Z,8.11
2019-05-15T06:46:33.022Z,8.18
2019-05-15T06:47:33.005Z,8.28
2019-05-15T06:48:32.996Z,8.28
2019-05-15T06:49:32.993Z,8.31
2019-05-15T06:50:32.961Z,8.45
2019-05-15T06:51:32.957Z,8.63
2019-05-15T06:52:32.931Z,8.63
2019-05-15T06:53:32.912Z,8.72
2019-05-15T06:54:32.902Z,8.77
2019-05-15T06:55:32.884Z,8.86
2019-05-15T06:56:32.865Z,8.97
2019-05-15T06:57:32.862Z,9.03
2019-05-15T06:58:32.840Z,9.12
2019-05-15T06:59:32.822Z,9.29
2019-05-15T07:00:32.802Z,9.39
2019-05-15T07:01:32.791Z,9.47
2019-05-15T07:02:32.776Z,9.52
2019-05-15T07:03:32.767Z,9.59
2019-05-15T07:04:32.747Z,9.63
2019-05-15T07:05:32.741Z,9.73
2019-05-15T07:06:32.713Z,9.77
2019-05-15T07:07:32.712Z,9.77
2019-05-15T07:08:32.701Z,10.00
2019-05-15T07:09:32.672Z,10.03
2019-05-15T07:10:32.679Z,10.13
2019-05-15T07:11:32.659Z,10.21
2019-05-15T07:12:32.632Z,10.30
2019-05-15T07:13:32.634Z,10.41
2019-05-15T07:14:32.634Z,10.49
2019-05-15T07:15:32.647Z,10.55
2019-05-15T07:16:32.568Z,10.71
2019-05-15T07:17:32.555Z,10.72
2019-05-15T07:18:32.536Z,10.89
2019-05-15T07:19:32.529Z,10.97
2019-05-15T07:20:32.512Z,11.08
2019-05-15T07:21:32.503Z,11.20
2019-05-15T07:22:32.482Z,11.35
2019-05-15T07:23:32.475Z,11.44
2019-05-15T07:24:32.456Z,11.51
2019-05-15T07:25:32.456Z,11.48
2019-05-15T07:26:32.438Z,11.58
2019-05-15T07:27:32.433Z,11.67
2019-05-15T07:28:32.410Z,11.73
2019-05-15T07:29:32.391Z,11.91
2019-05-15T07:30:32.392Z,11.96
2019-05-15T07:31:32.363Z,12.08
2019-05-15T07:32:32.352Z,12.12
2019-05-15T07:33:39.721Z,12.18
2019-05-15T07:34:32.324Z,12.28
2019-05-15T07:35:32.317Z,12.33
2019-05-15T07:36:32.300Z,12.47
2019-05-15T07:37:32.293Z,12.57
2019-05-15T07:38:32.272Z,12.57
2019-05-15T07:39:32.268Z,12.78
2019-05-15T07:40:32.258Z,12.69
2019-05-15T07:41:32.232Z,12.84
2019-05-15T07:42:32.225Z,12.93
2019-05-15T07:43:32.218Z,13.01
2019-05-15T07:44:32.201Z,13.17
2019-05-15T07:45:32.188Z,13.30
2019-05-15T07:46:32.176Z,13.42
2019-05-15T07:47:32.169Z,13.58
2019-05-15T07:48:32.151Z,13.62
2019-05-15T07:49:32.137Z,13.71
2019-05-15T07:50:32.134Z,13.87
2019-05-15T07:51:32.118Z,13.97
2019-05-15T07:52:32.104Z,14.11
2019-05-15T07:53:32.097Z,14.22
2019-05-15T07:54:32.084Z,14.36
2019-05-15T07:55:32.078Z,14.51
2019-05-15T07:56:32.064Z,14.59
2019-05-15T07:57:32.052Z,14.67
2019-05-15T07:58:32.048Z,14.78
2019-05-15T07:59:32.029Z,14.99
2019-05-15T08:00:32.022Z,15.05
2019-05-15T08:01:32.017Z,15.08
2019-05-15T08:02:32.006Z,15.25
2019-05-15T08:03:31.997Z,15.47
2019-05-15T08:04:33.028Z,15.55
2019-05-15T08:05:31.968Z,15.66
2019-05-15T08:06:31.968Z,15.92
2019-05-15T08:07:31.953Z,15.84
2019-05-15T08:08:31.951Z,15.99
2019-05-15T08:09:31.933Z,16.05
2019-05-15T08:10:31.927Z,16.24
2019-05-15T08:11:31.919Z,16.37
2019-05-15T08:12:31.901Z,16.49
2019-05-15T08:13:31.894Z,16.50
2019-05-15T08:14:31.885Z,16.58
2019-05-15T08:15:31.881Z,16.64
2019-05-15T08:16:31.868Z,16.69
2019-05-15T08:17:31.879Z,16.64
2019-05-15T08:18:31.853Z,16.69
2019-05-15T08:19:31.850Z,16.73
2019-05-15T08:20:31.843Z,16.80
2019-05-15T08:21:31.833Z,16.79
2019-05-15T08:22:31.822Z,16.86
2019-05-15T08:23:31.816Z,16.97
2019-05-15T08:24:31.824Z,16.98
2019-05-15T08:25:35.364Z,17.14
2019-05-15T08:26:31.799Z,17.17
2019-05-15T08:27:31.778Z,17.32
2019-05-15T08:28:31.778Z,17.53
2019-05-15T08:29:31.762Z,17.60
2019-05-15T08:30:31.758Z,17.86
2019-05-15T08:31:31.750Z,17.90
2019-05-15T08:32:31.752Z,18.11
2019-05-15T08:33:31.738Z,18.36
2019-05-15T08:34:31.725Z,18.60
2019-05-15T08:35:31.721Z,18.67
2019-05-15T08:36:31.711Z,18.83
2019-05-15T08:37:31.718Z,18.88
2019-05-15T08:38:31.698Z,18.92
2019-05-15T08:39:31.693Z,19.01
2019-05-15T08:40:31.685Z,19.04
2019-05-15T08:41:31.694Z,19.29
2019-05-15T08:42:32.242Z,19.35
2019-05-15T08:43:31.705Z,19.52
2019-05-15T08:44:31.960Z,19.72
2019-05-15T08:45:31.655Z,19.90
2019-05-15T08:46:31.644Z,20.14
2019-05-15T08:47:31.646Z,20.18
2019-05-15T08:48:32.918Z,20.29
2019-05-15T08:49:31.624Z,20.32
2019-05-15T08:50:31.642Z,20.19
2019-05-15T08:51:31.607Z,20.21
2019-05-15T08:52:31.600Z,20.18
2019-05-15T08:53:31.607Z,20.30
2019-05-15T08:54:31.587Z,20.33
2019-05-15T08:55:31.597Z,20.50
2019-05-15T08:56:31.577Z,20.70
2019-05-15T08:57:31.569Z,20.85
2019-05-15T08:58:31.561Z,20.96
2019-05-15T08:59:31.559Z,21.08
2019-05-15T09:00:31.559Z,21.20
2019-05-15T09:01:31.559Z,21.33
2019-05-15T09:02:31.547Z,21.35
2019-05-15T09:03:31.532Z,21.50
2019-05-15T09:04:34.788Z,21.56
2019-05-15T09:05:31.520Z,21.68
2019-05-15T09:06:31.512Z,21.74
2019-05-15T09:07:31.529Z,21.83
2019-05-15T09:08:31.498Z,21.91
2019-05-15T09:09:31.490Z,21.99
2019-05-15T09:10:31.487Z,22.04
2019-05-15T09:11:31.483Z,22.16
2019-05-15T09:12:31.472Z,22.16
2019-05-15T09:13:31.477Z,22.25
2019-05-15T09:14:31.462Z,22.22
2019-05-15T09:15:31.459Z,22.43
2019-05-15T09:16:31.459Z,22.56
2019-05-15T09:17:31.444Z,22.71
2019-05-15T09:18:31.439Z,22.83
2019-05-15T09:19:31.436Z,22.93
2019-05-15T09:21:33.312Z,23.25
2019-05-15T09:22:31.415Z,23.25
2019-05-15T09:23:31.668Z,23.34
2019-05-15T09:24:31.555Z,23.26
2019-05-15T09:25:31.458Z,23.45
2019-05-15T09:26:35.034Z,23.49
2019-05-15T09:27:31.485Z,23.56
2019-05-15T09:28:31.571Z,23.63
2019-05-15T09:29:31.391Z,23.70
2019-05-15T09:30:31.373Z,23.71
2019-05-15T09:31:31.370Z,23.70
2019-05-15T09:32:31.369Z,23.71
2019-05-15T09:33:31.361Z,23.73
2019-05-15T09:34:46.866Z,23.85
2019-05-15T09:35:31.354Z,23.82
2019-05-15T09:36:31.346Z,23.95
2019-05-15T09:37:33.609Z,23.94
2019-05-15T09:38:31.335Z,24.13
2019-05-15T09:39:31.330Z,24.22
2019-05-15T09:40:42.270Z,24.37
2019-05-15T09:41:31.315Z,24.41
2019-05-15T09:42:31.311Z,24.55
2019-05-15T09:43:31.311Z,24.61
2019-05-15T09:44:31.307Z,24.78
2019-05-15T09:45:31.292Z,24.85
2019-05-15T09:46:31.297Z,24.85
2019-05-15T09:47:31.328Z,24.99
2019-05-15T09:48:31.287Z,25.07
2019-05-15T09:49:31.316Z,25.03
2019-05-15T09:50:31.276Z,25.12
2019-05-15T09:51:31.283Z,25.24
2019-05-15T09:52:31.264Z,25.29
2019-05-15T09:53:31.266Z,25.29
2019-05-15T09:54:31.261Z,25.36
2019-05-15T09:55:31.257Z,25.46
2019-05-15T09:56:31.248Z,25.54
2019-05-15T09:57:31.249Z,25.52
2019-05-15T09:58:31.247Z,25.49
2019-05-15T09:59:31.280Z,25.54
2019-05-15T10:00:31.238Z,25.68
2019-05-15T10:01:31.226Z,25.70
2019-05-15T10:02:31.228Z,25.74
2019-05-15T10:03:31.231Z,25.78
2019-05-15T10:04:31.224Z,25.70
2019-05-15T10:05:31.214Z,25.71
2019-05-15T10:06:31.228Z,25.61
2019-05-15T10:07:31.205Z,25.71
2019-05-15T10:08:31.202Z,25.88
2019-05-15T10:09:31.224Z,25.92
2019-05-15T10:10:31.187Z,25.99
2019-05-15T10:11:31.187Z,25.98
2019-05-15T10:12:34.815Z,26.16
2019-05-15T10:13:31.183Z,26.29
2019-05-15T10:14:31.182Z,26.30
2019-05-15T10:15:31.178Z,26.46
2019-05-15T10:16:31.174Z,26.53
2019-05-15T10:17:31.167Z,26.63
2019-05-15T10:18:31.161Z,26.55
2019-05-15T10:19:31.153Z,26.51
2019-05-15T10:20:31.154Z,26.52
2019-05-15T10:21:32.534Z,26.59
2019-05-15T10:22:31.141Z,26.56
2019-05-15T10:23:31.145Z,26.56
2019-05-15T10:24:31.138Z,26.61
2019-05-15T10:25:31.138Z,26.63
2019-05-15T10:26:31.146Z,26.73
2019-05-15T10:27:31.130Z,26.83
2019-05-15T10:28:31.128Z,26.79
2019-05-15T10:29:31.125Z,26.86
2019-05-15T10:30:31.120Z,26.91
2019-05-15T10:31:31.120Z,26.88
2019-05-15T10:32:31.119Z,26.98
2019-05-15T10:33:31.105Z,26.98
2019-05-15T10:34:31.107Z,26.97
2019-05-15T10:35:31.802Z,27.13
2019-05-15T10:36:31.100Z,27.19
2019-05-15T10:37:31.105Z,27.23
2019-05-15T10:38:31.124Z,27.41
2019-05-15T10:39:31.091Z,27.47
2019-05-15T10:40:31.086Z,27.57
2019-05-15T10:41:31.084Z,27.50
2019-05-15T10:42:31.081Z,27.58
2019-05-15T10:43:31.104Z,27.66
2019-05-15T10:44:31.073Z,27.82
2019-05-15T10:45:31.074Z,28.03
2019-05-15T10:46:31.063Z,28.06
2019-05-15T10:47:31.082Z,28.10
2019-05-15T10:48:31.061Z,28.20
2019-05-15T10:49:31.056Z,28.15
2019-05-15T10:50:31.059Z,28.31
2019-05-15T10:51:31.059Z,28.27
2019-05-15T10:52:31.055Z,28.28
2019-05-15T10:53:31.054Z,28.38
2019-05-15T10:54:31.044Z,28.35
2019-05-15T10:55:31.051Z,28.30
2019-05-15T10:56:31.041Z,28.28
2019-05-15T10:57:31.043Z,28.22
2019-05-15T10:58:31.041Z,28.16
2019-05-15T10:59:31.059Z,28.20
2019-05-15T11:00:31.037Z,28.16
2019-05-15T11:01:31.027Z,28.12
2019-05-15T11:02:31.029Z,28.30
2019-05-15T11:03:34.738Z,28.31
2019-05-15T11:04:31.028Z,28.27
2019-05-15T11:05:43.889Z,28.15
2019-05-15T11:06:31.025Z,28.13
2019-05-15T11:07:31.021Z,28.23
2019-05-15T11:08:31.040Z,28.33
2019-05-15T11:09:31.015Z,28.59
2019-05-15T11:10:31.030Z,28.75
2019-05-15T11:11:31.023Z,28.83
2019-05-15T11:12:31.014Z,28.82
2019-05-15T11:13:31.011Z,28.82
2019-05-15T11:14:31.018Z,28.77
2019-05-15T11:15:31.009Z,28.72
2019-05-15T11:16:31.002Z,28.59
2019-05-15T11:17:31.585Z,28.50
2019-05-15T11:18:31.005Z,28.46
2019-05-15T11:19:35.969Z,28.28
2019-05-15T11:20:31.009Z,28.18
2019-05-15T11:21:31.007Z,28.19
2019-05-15T11:22:30.996Z,28.04
2019-05-15T11:23:31.000Z,28.18
2019-05-15T11:24:32.375Z,28.18
2019-05-15T11:25:30.992Z,28.12
2019-05-15T11:26:33.593Z,28.13
2019-05-15T11:27:31.345Z,28.09
2019-05-15T11:28:32.356Z,28.18
2019-05-15T11:29:30.988Z,28.12
2019-05-15T11:30:30.986Z,28.25
2019-05-15T11:31:30.985Z,28.43
2019-05-15T11:32:30.986Z,28.59
2019-05-15T11:33:30.981Z,28.78
2019-05-15T11:34:30.982Z,28.86
2019-05-15T11:35:30.982Z,28.89
2019-05-15T11:36:30.977Z,29.03
2019-05-15T11:37:30.975Z,28.93
2019-05-15T11:38:30.974Z,29.13
2019-05-15T11:39:30.976Z,29.30
2019-05-15T11:40:30.977Z,29.28
2019-05-15T11:41:31.014Z,29.32
2019-05-15T11:42:30.982Z,29.24
2019-05-15T11:43:30.979Z,29.34
2019-05-15T11:44:30.974Z,29.44
2019-05-15T11:45:30.979Z,29.44
2019-05-15T11:46:30.978Z,29.47
2019-05-15T11:47:30.980Z,29.40
2019-05-15T11:48:30.980Z,29.22
2019-05-15T11:49:30.982Z,29.18
2019-05-15T11:50:30.977Z,29.24
2019-05-15T11:51:30.981Z,29.10
2019-05-15T11:52:30.991Z,29.12
2019-05-15T11:53:30.981Z,29.13
2019-05-15T11:54:30.981Z,29.16
2019-05-15T11:55:30.984Z,29.16
2019-05-15T11:56:30.980Z,29.22
2019-05-15T11:57:42.490Z,29.09
2019-05-15T11:58:30.992Z,29.10
2019-05-15T11:59:30.991Z,29.09
2019-05-15T12:00:30.989Z,29.06
2019-05-15T12:01:30.995Z,29.00
2019-05-15T12:02:30.992Z,29.05
2019-05-15T12:03:31.007Z,29.00
2019-05-15T12:04:34.053Z,28.96
2019-05-15T12:05:30.998Z,29.00
2019-05-15T12:06:30.994Z,29.06
2019-05-15T12:07:31.001Z,29.15
2019-05-15T12:08:30.997Z,29.30
2019-05-15T12:09:31.007Z,29.44
2019-05-15T12:10:31.004Z,29.67
2019-05-15T12:11:36.625Z,29.92
2019-05-15T12:12:32.096Z,29.98
2019-05-15T12:13:31.017Z,30.01
2019-05-15T12:14:31.013Z,30.10
2019-05-15T12:15:31.018Z,30.06
2019-05-15T12:16:31.015Z,30.08
2019-05-15T12:17:34.074Z,30.24
2019-05-15T12:18:31.038Z,30.32
2019-05-15T12:19:31.023Z,30.36
2019-05-15T12:20:31.028Z,30.48
2019-05-15T12:21:31.030Z,30.56
2019-05-15T12:22:31.027Z,30.44
2019-05-15T12:23:31.041Z,30.35
2019-05-15T12:25:32.031Z,30.01
2019-05-15T12:26:31.048Z,29.81
2019-05-15T12:27:31.042Z,29.55
2019-05-15T12:28:31.035Z,29.35
2019-05-15T12:29:31.044Z,29.18
2019-05-15T12:30:31.046Z,28.97
2019-05-15T12:31:31.043Z,28.84
2019-05-15T12:32:36.009Z,28.60
2019-05-15T12:33:31.044Z,28.65
2019-05-15T12:34:31.046Z,28.50
2019-05-15T12:35:31.044Z,28.22
2019-05-15T12:36:51.450Z,28.01
2019-05-15T12:37:31.042Z,27.75
2019-05-15T12:38:31.048Z,27.48
2019-05-15T12:39:31.039Z,27.37
2019-05-15T13:00:31.005Z,25.93
2019-05-15T13:01:31.008Z,25.86
2019-05-15T13:02:31.001Z,25.96
2019-05-15T13:03:31.001Z,26.06
2019-05-15T13:04:30.997Z,26.06
2019-05-15T13:05:32.623Z,26.13
2019-05-15T13:06:31.004Z,26.03
2019-05-15T13:07:30.991Z,26.06
2019-05-15T13:08:30.985Z,25.96
2019-05-15T13:09:30.987Z,25.73
2019-05-15T13:10:30.987Z,25.61
2019-05-15T13:11:30.990Z,25.67
2019-05-15T13:12:30.984Z,25.62
2019-05-15T13:13:30.983Z,25.68
2019-05-15T13:14:30.977Z,25.85
2019-05-15T13:15:30.990Z,25.95
2019-05-15T13:16:30.970Z,25.96
2019-05-15T13:17:30.974Z,26.01
2019-05-15T13:18:30.974Z,26.15
2019-05-15T13:19:30.962Z,26.45
2019-05-15T13:20:30.969Z,26.76
2019-05-15T13:21:30.967Z,27.08
2019-05-15T13:22:30.969Z,27.34
2019-05-15T13:23:30.976Z,27.53
2019-05-15T13:24:30.970Z,27.73
2019-05-15T13:25:30.968Z,27.90
2019-05-15T13:26:30.971Z,28.03
2019-05-15T13:27:30.996Z,27.98
2019-05-15T13:28:30.978Z,28.06
2019-05-15T13:29:30.970Z,28.15
2019-05-15T13:30:30.974Z,28.13
2019-05-15T13:31:30.976Z,28.15
2019-05-15T13:32:30.978Z,28.06
2019-05-15T13:33:30.971Z,28.04
2019-05-15T13:34:31.066Z,27.71
2019-05-15T13:35:30.972Z,27.33
2019-05-15T13:36:30.977Z,26.98
2019-05-15T13:37:31.196Z,26.61
2019-05-15T13:38:30.977Z,26.23
2019-05-15T13:39:30.976Z,25.93
2019-05-15T13:40:37.512Z,25.62
2019-05-15T13:41:30.971Z,25.46
2019-05-15T13:42:30.977Z,25.34
2019-05-15T13:43:30.977Z,25.37
2019-05-15T13:44:30.987Z,25.25
2019-05-15T13:45:30.968Z,25.36
2019-05-15T13:46:32.885Z,25.36
2019-05-15T13:47:30.967Z,25.56
2019-05-15T13:48:30.962Z,25.68
2019-05-15T13:49:30.966Z,25.81
2019-05-15T13:50:30.961Z,26.01
2019-05-15T13:51:30.966Z,26.18
2019-05-15T13:52:30.962Z,26.36
2019-05-15T13:53:30.975Z,26.63
2019-05-15T13:54:30.958Z,26.91
2019-05-15T13:55:36.735Z,27.19
2019-05-15T13:56:30.960Z,27.41
2019-05-15T13:57:30.960Z,27.68
2019-05-15T13:58:30.988Z,27.78
2019-05-15T13:59:30.960Z,28.01
2019-05-15T14:00:30.960Z,28.18
2019-05-15T14:01:30.964Z,28.16
2019-05-15T14:02:30.968Z,28.06
2019-05-15T14:03:30.970Z,28.10
2019-05-15T14:04:30.977Z,27.98
2019-05-15T14:05:30.975Z,27.98
2019-05-15T14:06:30.973Z,27.98
2019-05-15T14:07:45.027Z,28.06
2019-05-15T14:08:30.977Z,28.03
2019-05-15T14:09:33.474Z,28.03
2019-05-15T14:10:30.980Z,28.12
2019-05-15T14:11:31.685Z,28.15
2019-05-15T14:12:30.986Z,28.15
2019-05-15T14:13:30.982Z,28.20
2019-05-15T14:14:30.984Z,28.31
2019-05-15T14:15:30.988Z,28.30
2019-05-15T14:16:30.990Z,28.35
2019-05-15T14:17:30.987Z,28.31
2019-05-15T14:18:30.989Z,28.31
2019-05-15T14:19:30.994Z,28.30
2019-05-15T14:20:30.996Z,28.25
2019-05-15T14:21:30.995Z,28.28
2019-05-15T14:22:30.996Z,28.50
2019-05-15T14:23:30.998Z,28.45
2019-05-15T14:24:31.005Z,28.31
2019-05-15T14:25:31.002Z,28.30
2019-05-15T14:26:31.002Z,28.10
2019-05-15T14:27:31.003Z,28.10
2019-05-15T14:28:39.653Z,28.01
2019-05-15T14:30:35.499Z,28.22
2019-05-15T14:31:37.106Z,28.40
2019-05-15T14:33:40.942Z,28.60
2019-05-15T14:34:40.925Z,28.90
2019-05-15T14:36:48.358Z,29.07
2019-05-15T14:38:01.848Z,29.16
2019-05-15T14:39:52.489Z,29.30
2019-05-15T14:40:51.863Z,29.37
2019-05-15T14:41:51.869Z,29.37
2019-05-15T14:42:51.856Z,29.40
2019-05-15T14:43:51.873Z,29.25
2019-05-15T14:44:51.862Z,29.34
2019-05-15T14:45:51.854Z,29.30
2019-05-15T14:46:51.858Z,29.34
2019-05-15T14:47:51.875Z,29.32
2019-05-15T14:48:51.857Z,29.42
2019-05-15T14:49:51.967Z,29.35
2019-05-15T14:50:51.855Z,29.46
2019-05-15T14:52:04.637Z,29.46
2019-05-15T14:52:51.853Z,29.42
2019-05-15T14:53:51.852Z,29.39
2019-05-15T14:54:51.864Z,29.34
2019-05-15T14:55:51.847Z,29.24
2019-05-15T14:56:51.852Z,29.34
2019-05-15T14:57:51.851Z,29.31
2019-05-15T14:58:51.850Z,29.30
2019-05-15T14:59:51.850Z,29.24
2019-05-15T15:00:51.861Z,29.24
2019-05-15T15:01:51.846Z,29.21
2019-05-15T15:02:51.848Z,29.03
2019-05-15T15:03:51.853Z,28.77
2019-05-15T15:04:51.845Z,28.57
2019-05-15T15:05:51.843Z,28.37
2019-05-15T15:06:51.836Z,28.28
2019-05-15T15:07:51.842Z,28.15
2019-05-15T15:08:51.859Z,28.06
2019-05-15T15:09:51.836Z,28.08
2019-05-15T15:10:51.844Z,27.98
2019-05-15T15:11:51.834Z,27.76
2019-05-15T15:12:51.828Z,27.50
2019-05-15T15:13:51.831Z,27.22
2019-05-15T15:14:52.497Z,27.07
2019-05-15T15:15:51.831Z,26.92
2019-05-15T15:16:51.822Z,26.74
2019-05-15T15:17:51.821Z,26.53
2019-05-15T15:18:51.819Z,26.49
2019-05-15T15:19:52.649Z,26.37